createdAt,value
2022-09-05T00:07:58.929Z,21.30
2022-09-05T00:12:31.083Z,21.30
2022-09-05T00:17:52.713Z,18.30
2022-09-05T00:24:37.402Z,18.30
2022-09-05T00:27:37.516Z,17.30
2022-09-05T00:32:43.520Z,17.30
2022-09-05T00:37:38.883Z,16.30
2022-09-05T00:42:27.985Z,16.30
2022-09-05T00:47:48.277Z,15.40
2022-09-05T00:57:34.885Z,16.30
2022-09-05T01:07:44.203Z,14.50
2022-09-05T01:12:52.707Z,14.50
2022-09-05T01:17:28.504Z,14.40
2022-09-05T01:28:25.235Z,13.70
2022-09-05T01:37:43.748Z,13.30
2022-09-05T01:42:40.681Z,13.30
2022-09-05T01:52:59.247Z,12.10
2022-09-05T01:57:47.553Z,12.70
2022-09-05T02:17:50.696Z,10.60
2022-09-05T02:28:05.090Z,11.00
2022-09-05T02:32:27.715Z,11.00
2022-09-05T02:39:18.615Z,9.70
2022-09-05T02:47:41.089Z,10.10
2022-09-05T02:57:33.867Z,10.10
2022-09-05T03:02:44.301Z,9.50
2022-09-05T03:17:37.807Z,8.80
2022-09-05T03:22:37.169Z,8.80
2022-09-05T03:32:40.363Z,9.20
2022-09-05T03:37:47.797Z,9.00
2022-09-05T03:42:45.566Z,9.00
2022-09-05T03:47:38.886Z,8.80
2022-09-05T03:57:14.198Z,8.80
2022-09-05T04:06:03.923Z,8.70
2022-09-05T04:08:29.048Z,9.70
2022-09-05T04:27:35.415Z,9.10
2022-09-05T04:32:45.461Z,9.10
2022-09-05T04:47:36.935Z,9.00
2022-09-05T04:52:31.897Z,9.00
2022-09-05T05:07:39.510Z,9.40
2022-09-05T05:17:55.924Z,9.40
2022-09-05T05:18:11.815Z,10.20
2022-09-05T05:22:28.262Z,10.20
2022-09-05T05:27:40.519Z,9.00
2022-09-05T05:32:45.572Z,9.00
2022-09-05T05:42:28.278Z,10.10
2022-09-05T05:52:45.558Z,11.70
2022-09-05T06:02:50.698Z,9.10
2022-09-05T06:09:14.150Z,10.20
2022-09-05T06:15:06.397Z,10.20
2022-09-05T06:22:39.344Z,15.60
2022-09-05T06:28:17.935Z,14.00
2022-09-05T06:32:39.123Z,14.00
2022-09-05T06:37:39.520Z,14.00
2022-09-05T06:42:43.917Z,14.00
2022-09-05T06:47:34.465Z,14.50
2022-09-05T06:52:38.355Z,14.50
2022-09-05T07:02:59.902Z,15.20
2022-09-05T07:07:36.290Z,14.70
2022-09-05T07:12:37.051Z,14.70
2022-09-05T07:17:53.613Z,13.10
2022-09-05T07:22:47.291Z,13.10
2022-09-05T07:27:44.444Z,12.50
2022-09-05T07:32:31.944Z,12.50
2022-09-05T07:37:38.615Z,11.30
2022-09-05T07:42:28.621Z,11.30
2022-09-05T07:47:32.555Z,11.10
2022-09-05T07:56:49.702Z,11.10
2022-09-05T07:57:42.921Z,8.70
2022-09-05T08:02:28.637Z,8.70
2022-09-05T08:07:47.880Z,9.20
2022-09-05T08:13:02.715Z,9.20
2022-09-05T08:22:36.667Z,8.10
2022-09-05T08:32:07.384Z,8.40
2022-09-05T08:32:11.847Z,8.40
2022-09-05T08:32:48.335Z,8.40
2022-09-05T08:36:29.318Z,8.40
2022-09-05T08:37:30.831Z,6.70
2022-09-05T08:42:39.906Z,6.70
2022-09-05T08:52:48.640Z,8.70
2022-09-05T08:57:48.634Z,7.20
2022-09-05T09:02:46.690Z,7.20
2022-09-05T09:07:50.594Z,7.40
2022-09-05T09:12:38.726Z,7.40
2022-09-05T09:17:42.340Z,6.70
2022-09-05T09:22:44.536Z,6.70
2022-09-05T09:28:46.501Z,6.50
2022-09-05T09:32:30.532Z,6.50
2022-09-05T09:37:49.916Z,6.50
2022-09-05T09:42:49.894Z,6.50
2022-09-05T09:47:42.335Z,5.00
2022-09-05T09:52:43.201Z,5.00
2022-09-05T09:57:40.708Z,4.60
2022-09-05T10:04:57.911Z,4.60
2022-09-05T10:10:45.166Z,4.40
2022-09-05T10:17:48.869Z,5.70
2022-09-05T10:22:40.934Z,5.70
2022-09-05T10:27:38.203Z,5.20
2022-09-05T10:35:06.118Z,5.20
2022-09-05T10:37:40.436Z,2.90
2022-09-05T10:42:41.236Z,2.90
2022-09-05T10:47:48.965Z,3.70
2022-09-05T10:52:48.980Z,3.70
2022-09-05T10:57:40.107Z,4.80
2022-09-05T11:02:33.664Z,4.80
2022-09-05T11:07:38.799Z,3.30
2022-09-05T11:12:37.755Z,3.30
2022-09-05T11:17:41.119Z,3.40
2022-09-05T11:22:36.056Z,3.40
2022-09-05T11:36:41.549Z,3.00
2022-09-05T11:40:09.611Z,5.90
2022-09-05T11:42:42.970Z,5.90
2022-09-05T11:47:44.808Z,5.10
2022-09-05T11:52:40.385Z,5.10
2022-09-05T11:57:41.092Z,5.10
2022-09-05T12:02:37.899Z,5.10
2022-09-05T12:07:47.007Z,5.10
2022-09-05T12:12:46.673Z,3.30
2022-09-05T12:17:40.356Z,3.30
2022-09-05T12:22:33.389Z,4.30
2022-09-05T12:27:45.517Z,4.30
2022-09-05T12:33:53.605Z,4.10
2022-09-05T12:40:53.949Z,4.10
2022-09-05T12:42:48.509Z,5.30
2022-09-05T12:52:32.627Z,5.60
2022-09-05T13:02:13.320Z,5.60
2022-09-05T13:07:39.326Z,4.10
2022-09-05T13:14:56.430Z,7.50
2022-09-05T13:17:44.579Z,7.50
2022-09-05T13:22:30.756Z,5.40
2022-09-05T13:27:33.486Z,5.40
2022-09-05T13:38:07.903Z,5.90
2022-09-05T13:38:12.950Z,5.90
2022-09-05T13:42:34.243Z,5.90
2022-09-05T13:47:49.929Z,5.90
2022-09-05T13:52:38.250Z,5.50
2022-09-05T13:57:38.695Z,5.50
2022-09-05T14:22:47.616Z,9.00
2022-09-05T14:27:32.081Z,9.00
2022-09-05T14:37:34.142Z,6.30
2022-09-05T14:38:04.434Z,6.30
2022-09-05T14:42:47.305Z,8.90
2022-09-05T14:47:47.474Z,8.90
2022-09-05T15:02:40.792Z,4.80
2022-09-05T15:02:45.700Z,7.80
2022-09-05T15:12:39.620Z,8.20
2022-09-05T15:17:30.114Z,8.20
2022-09-05T15:22:32.093Z,5.70
2022-09-05T15:27:30.138Z,5.70
2022-09-05T15:32:29.996Z,7.50
2022-09-05T15:37:35.706Z,7.50
2022-09-05T15:42:32.672Z,6.40
2022-09-05T15:47:32.672Z,6.40
2022-09-05T15:52:38.754Z,8.20
2022-09-05T15:57:33.181Z,8.20
2022-09-05T16:02:33.584Z,7.90
2022-09-05T16:23:18.908Z,5.30
2022-09-05T16:23:34.525Z,29.70
2022-09-05T16:32:33.766Z,24.40
2022-09-05T16:37:36.805Z,24.40
2022-09-05T16:47:38.689Z,18.80
2022-09-05T16:52:43.411Z,15.20
2022-09-05T17:02:40.134Z,8.50
2022-09-05T17:12:32.519Z,7.90
2022-09-05T17:18:19.822Z,7.90
2022-09-05T17:29:26.225Z,8.50
2022-09-05T17:32:33.699Z,7.80
2022-09-05T17:42:40.190Z,8.40
2022-09-05T17:47:45.320Z,8.40
2022-09-05T18:02:32.609Z,10.60
2022-09-05T18:13:13.980Z,9.00
2022-09-05T18:22:35.076Z,10.30
2022-09-05T18:28:04.979Z,10.30
2022-09-05T18:32:42.065Z,9.70
2022-09-05T18:37:38.084Z,9.70
2022-09-05T18:42:34.723Z,9.10
2022-09-05T18:47:51.148Z,9.10
2022-09-05T18:52:35.777Z,9.60
2022-09-05T19:02:58.558Z,10.30
2022-09-05T19:07:38.636Z,10.30
2022-09-05T19:12:37.379Z,9.00
2022-09-05T19:17:35.113Z,9.00
2022-09-05T19:23:01.069Z,10.80
2022-09-05T19:29:51.579Z,10.80
2022-09-05T19:37:15.602Z,10.20
2022-09-05T19:37:41.275Z,10.20
2022-09-05T19:47:41.669Z,12.60
2022-09-05T19:52:32.781Z,15.30
2022-09-05T19:57:30.760Z,15.30
2022-09-05T20:02:32.902Z,14.10
2022-09-05T20:07:32.062Z,14.10
2022-09-05T20:17:33.397Z,15.10
2022-09-05T20:22:49.111Z,17.00
2022-09-05T20:27:30.839Z,17.00
2022-09-05T20:32:39.051Z,16.80
2022-09-05T20:43:15.781Z,16.80
2022-09-05T20:43:21.749Z,13.90
2022-09-05T20:52:59.893Z,13.90
2022-09-05T20:57:31.321Z,16.10
2022-09-05T21:07:34.678Z,16.10
2022-09-05T21:12:44.152Z,18.70
2022-09-05T21:17:32.200Z,18.70
2022-09-05T21:22:43.364Z,14.70
2022-09-05T21:27:30.870Z,14.70
2022-09-05T21:32:41.286Z,12.20
2022-09-05T21:43:08.599Z,6.70
2022-09-05T21:47:39.614Z,6.70
2022-09-05T21:52:31.413Z,8.70
2022-09-05T21:59:28.484Z,8.70
2022-09-05T22:02:31.667Z,7.80
2022-09-05T22:07:34.521Z,7.80
2022-09-05T22:12:37.439Z,7.60
2022-09-05T22:17:31.526Z,7.60
2022-09-05T22:22:31.137Z,7.20
2022-09-05T22:27:33.423Z,7.20
2022-09-05T22:32:35.069Z,7.00
2022-09-05T22:42:31.843Z,7.20
2022-09-05T22:47:31.113Z,7.20
2022-09-05T22:52:31.052Z,7.10
2022-09-05T22:57:31.170Z,7.10
2022-09-05T23:12:35.816Z,6.20
2022-09-05T23:17:31.180Z,6.20
2022-09-05T23:22:31.158Z,6.60
2022-09-05T23:27:35.762Z,6.60
2022-09-05T23:32:31.337Z,4.70
2022-09-05T23:42:31.227Z,3.00
2022-09-05T23:52:36.647Z,3.00
2022-09-05T23:57:31.603Z,3.00
